createdAt,value
2022-08-05T00:02:07.747Z,26.90
2022-08-05T00:04:41.308Z,26.90
2022-08-05T00:07:26.840Z,26.90
2022-08-05T00:10:06.173Z,26.80
2022-08-05T00:12:55.725Z,26.80
2022-08-05T00:15:55.798Z,26.80
2022-08-05T00:18:21.724Z,26.80
2022-08-05T00:20:53.554Z,26.80
2022-08-05T00:23:44.396Z,26.70
2022-08-05T00:26:16.994Z,26.70
2022-08-05T00:28:47.540Z,26.60
2022-08-05T00:31:54.131Z,26.60
2022-08-05T00:34:53.627Z,26.60
2022-08-05T00:37:11.629Z,26.50
2022-08-05T00:39:44.140Z,26.50
2022-08-05T00:42:12.695Z,26.40
2022-08-05T00:45:08.828Z,26.40
2022-08-05T00:47:56.495Z,26.40
2022-08-05T00:50:34.193Z,26.30
2022-08-05T00:53:09.824Z,26.30
2022-08-05T00:55:57.710Z,26.30
2022-08-05T00:58:27.388Z,26.20
2022-08-05T01:00:58.593Z,26.20
2022-08-05T01:03:30.944Z,26.10
2022-08-05T01:06:02.627Z,26.10
2022-08-05T01:08:42.875Z,26.00
2022-08-05T01:11:37.805Z,26.00
2022-08-05T01:14:16.460Z,25.90
2022-08-05T01:17:10.656Z,25.90
2022-08-05T01:20:01.318Z,25.90
2022-08-05T01:23:23.226Z,25.80
2022-08-05T01:26:15.085Z,25.80
2022-08-05T01:28:56.521Z,25.80
2022-08-05T01:31:46.694Z,25.80
2022-08-05T01:34:35.852Z,25.70
2022-08-05T01:37:24.878Z,25.70
2022-08-05T01:40:05.138Z,25.70
2022-08-05T01:42:42.107Z,25.70
2022-08-05T01:45:17.692Z,25.70
2022-08-05T01:47:54.519Z,25.60
2022-08-05T01:50:31.059Z,25.70
2022-08-05T01:53:11.951Z,25.60
2022-08-05T01:55:51.767Z,25.40
2022-08-05T01:58:40.390Z,25.30
2022-08-05T02:01:23.262Z,25.20
2022-08-05T02:04:05.227Z,25.20
2022-08-05T02:06:37.713Z,24.90
2022-08-05T02:09:16.413Z,24.60
2022-08-05T02:12:10.157Z,24.40
2022-08-05T02:14:49.849Z,24.40
2022-08-05T02:18:28.228Z,24.30
2022-08-05T02:20:29.345Z,24.40
2022-08-05T02:23:03.003Z,24.30
2022-08-05T02:25:49.761Z,24.00
2022-08-05T02:28:28.616Z,23.90
2022-08-05T02:31:29.113Z,23.80
2022-08-05T02:34:12.205Z,23.40
2022-08-05T02:36:51.401Z,23.30
2022-08-05T02:39:22.457Z,23.30
2022-08-05T02:42:01.359Z,23.30
2022-08-05T02:44:34.513Z,23.30
2022-08-05T02:47:05.213Z,23.20
2022-08-05T02:49:46.314Z,23.10
2022-08-05T02:52:29.463Z,23.20
2022-08-05T02:55:13.396Z,23.10
2022-08-05T02:58:09.339Z,22.90
2022-08-05T03:00:40.160Z,22.80
2022-08-05T03:03:10.529Z,22.60
2022-08-05T03:06:54.361Z,22.50
2022-08-05T03:08:35.427Z,22.50
2022-08-05T03:11:57.133Z,22.50
2022-08-05T03:14:03.362Z,22.60
2022-08-05T03:16:32.228Z,22.60
2022-08-05T03:19:00.751Z,22.70
2022-08-05T03:21:41.267Z,22.70
2022-08-05T03:24:11.185Z,22.80
2022-08-05T03:26:49.389Z,22.80
2022-08-05T03:29:20.861Z,22.90
2022-08-05T03:32:00.516Z,22.90
2022-08-05T03:34:37.076Z,23.00
2022-08-05T03:37:08.400Z,23.00
2022-08-05T03:39:47.416Z,23.10
2022-08-05T03:42:51.559Z,23.10
2022-08-05T03:45:23.803Z,23.20
2022-08-05T03:47:57.136Z,23.20
2022-08-05T03:50:45.462Z,23.30
2022-08-05T03:55:51.766Z,23.30
2022-08-05T03:56:34.786Z,23.30
2022-08-05T03:59:47.668Z,23.30
2022-08-05T04:02:37.613Z,23.40
2022-08-05T04:05:18.525Z,23.30
2022-08-05T04:07:58.794Z,23.40
2022-08-05T04:10:30.832Z,23.40
2022-08-05T04:13:04.223Z,23.40
2022-08-05T04:15:36.279Z,23.40
2022-08-05T04:18:09.539Z,23.30
2022-08-05T04:20:41.967Z,23.10
2022-08-05T04:23:16.138Z,23.10
2022-08-05T04:26:00.742Z,23.10
2022-08-05T04:28:30.767Z,23.10
2022-08-05T04:31:08.258Z,23.30
2022-08-05T04:34:19.047Z,23.40
2022-08-05T04:36:49.506Z,23.40
2022-08-05T04:39:19.459Z,23.50
2022-08-05T04:41:48.931Z,23.50
2022-08-05T04:44:30.187Z,23.30
2022-08-05T04:47:08.746Z,23.30
2022-08-05T04:50:02.533Z,23.20
2022-08-05T04:52:34.459Z,23.30
2022-08-05T04:55:15.062Z,23.40
2022-08-05T04:57:47.716Z,23.50
2022-08-05T05:00:23.505Z,23.50
2022-08-05T05:02:53.612Z,23.30
2022-08-05T05:05:28.301Z,23.30
2022-08-05T05:08:05.588Z,23.20
2022-08-05T05:10:55.876Z,23.40
2022-08-05T05:13:32.458Z,23.50
2022-08-05T05:16:12.067Z,23.50
2022-08-05T05:19:02.534Z,23.40
2022-08-05T05:21:36.701Z,23.50
2022-08-05T05:24:09.191Z,23.60
2022-08-05T05:26:39.707Z,23.70
2022-08-05T05:29:15.015Z,23.80
2022-08-05T05:31:46.386Z,23.80
2022-08-05T05:34:21.177Z,23.80
2022-08-05T05:36:57.667Z,23.60
2022-08-05T05:39:34.502Z,23.60
2022-08-05T05:42:12.897Z,23.70
2022-08-05T05:44:47.419Z,23.90
2022-08-05T05:47:22.183Z,24.00
2022-08-05T05:49:56.492Z,24.10
2022-08-05T05:52:28.421Z,24.20
2022-08-05T05:55:11.788Z,24.20
2022-08-05T05:57:56.562Z,24.00
2022-08-05T06:00:34.305Z,24.00
2022-08-05T06:03:39.938Z,24.00
2022-08-05T06:05:55.760Z,24.00
2022-08-05T06:08:32.732Z,24.10
2022-08-05T06:11:01.644Z,24.20
2022-08-05T06:13:29.264Z,24.20
2022-08-05T06:16:28.473Z,24.20
2022-08-05T06:19:05.864Z,24.20
2022-08-05T06:21:42.943Z,24.10
2022-08-05T06:24:25.856Z,24.10
2022-08-05T06:26:57.217Z,24.10
2022-08-05T06:29:48.134Z,24.00
2022-08-05T06:32:25.912Z,23.80
2022-08-05T06:34:57.282Z,23.60
2022-08-05T06:40:21.564Z,23.70
2022-08-05T06:43:05.133Z,23.80
2022-08-05T06:46:03.809Z,23.90
2022-08-05T06:48:56.717Z,23.90
2022-08-05T06:51:29.826Z,24.00
2022-08-05T06:54:04.066Z,24.00
2022-08-05T06:56:35.529Z,24.10
2022-08-05T06:59:12.041Z,24.30
2022-08-05T07:01:52.792Z,24.50
2022-08-05T07:04:24.590Z,24.60
2022-08-05T07:06:55.291Z,24.70
2022-08-05T07:09:26.348Z,24.70
2022-08-05T07:12:00.871Z,24.60
2022-08-05T07:14:32.284Z,24.70
2022-08-05T07:17:59.946Z,24.70
2022-08-05T07:22:51.237Z,24.90
2022-08-05T07:25:24.011Z,25.00
2022-08-05T07:28:17.082Z,25.10
2022-08-05T07:30:52.809Z,25.30
2022-08-05T07:33:35.219Z,25.20
2022-08-05T07:36:21.150Z,25.20
2022-08-05T07:38:54.823Z,25.10
2022-08-05T07:42:08.235Z,25.00
2022-08-05T07:44:19.231Z,25.10
2022-08-05T07:46:49.758Z,25.20
2022-08-05T07:49:26.033Z,25.10
2022-08-05T07:51:57.276Z,25.20
2022-08-05T07:54:41.186Z,25.20
2022-08-05T07:57:41.885Z,25.00
2022-08-05T08:00:11.336Z,25.00
2022-08-05T08:03:14.173Z,25.20
2022-08-05T08:05:28.866Z,25.10
2022-08-05T08:07:59.838Z,25.10
2022-08-05T08:10:34.726Z,24.80
2022-08-05T08:13:05.476Z,24.80
2022-08-05T08:16:33.797Z,24.80
2022-08-05T08:18:29.786Z,24.60
2022-08-05T08:21:09.849Z,24.40
2022-08-05T08:24:00.969Z,24.40
2022-08-05T08:26:32.894Z,24.40
2022-08-05T08:30:04.570Z,24.50
2022-08-05T08:31:50.831Z,24.50
2022-08-05T08:34:30.237Z,24.70
2022-08-05T08:37:04.770Z,24.80
2022-08-05T08:39:37.233Z,24.50
2022-08-05T08:42:46.967Z,24.50
2022-08-05T08:45:23.840Z,24.30
2022-08-05T08:48:12.378Z,24.30
2022-08-05T08:51:07.615Z,24.30
2022-08-05T08:53:46.744Z,24.40
2022-08-05T08:56:17.132Z,24.50
2022-08-05T08:58:54.302Z,24.40
2022-08-05T09:01:24.407Z,24.40
2022-08-05T09:03:57.478Z,24.00
2022-08-05T09:06:30.407Z,24.00
2022-08-05T09:09:02.580Z,23.90
2022-08-05T09:11:53.670Z,23.90
2022-08-05T09:14:57.810Z,23.70
2022-08-05T09:17:39.900Z,23.70
2022-08-05T09:20:10.764Z,23.80
2022-08-05T09:23:05.043Z,24.00
2022-08-05T09:25:59.857Z,24.20
2022-08-05T09:28:34.747Z,24.20
2022-08-05T09:31:23.529Z,24.20
2022-08-05T09:34:14.056Z,24.30
2022-08-05T09:36:55.667Z,24.50
2022-08-05T09:39:45.497Z,24.70
2022-08-05T09:42:24.474Z,24.80
2022-08-05T09:45:17.973Z,24.90
2022-08-05T09:47:56.775Z,25.10
2022-08-05T09:50:44.458Z,25.30
2022-08-05T09:53:25.968Z,25.20
2022-08-05T09:56:13.037Z,25.10
2022-08-05T09:58:43.800Z,25.00
2022-08-05T10:01:31.562Z,24.90
2022-08-05T10:04:10.059Z,24.80
2022-08-05T10:06:58.724Z,24.90
2022-08-05T10:09:29.464Z,24.80
2022-08-05T10:12:31.720Z,24.70
2022-08-05T10:15:26.342Z,24.80
2022-08-05T10:18:17.504Z,24.90
2022-08-05T10:21:15.753Z,24.90
2022-08-05T10:24:00.132Z,25.00
2022-08-05T10:26:32.261Z,25.00
2022-08-05T10:29:02.179Z,25.10
2022-08-05T10:32:54.349Z,25.20
2022-08-05T10:34:31.097Z,25.10
2022-08-05T10:37:04.741Z,25.00
2022-08-05T10:40:03.138Z,25.00
2022-08-05T10:42:34.376Z,24.90
2022-08-05T10:45:23.757Z,24.80
2022-08-05T10:48:30.313Z,24.70
2022-08-05T10:51:22.224Z,24.40
2022-08-05T10:54:22.984Z,24.40
2022-08-05T10:57:02.164Z,24.20
2022-08-05T11:00:03.770Z,24.00
2022-08-05T11:02:38.140Z,24.00
2022-08-05T11:05:18.771Z,24.10
2022-08-05T11:08:21.737Z,24.10
2022-08-05T11:11:00.993Z,23.90
2022-08-05T11:13:57.925Z,23.70
2022-08-05T11:16:47.937Z,23.90
2022-08-05T11:20:09.986Z,24.20
2022-08-05T11:22:53.976Z,24.40
2022-08-05T11:26:05.971Z,24.80
2022-08-05T11:28:36.047Z,24.80
2022-08-05T11:31:12.964Z,24.70
2022-08-05T11:34:08.438Z,24.60
2022-08-05T11:36:55.417Z,24.60
2022-08-05T11:40:02.702Z,24.90
2022-08-05T11:42:41.168Z,24.80
2022-08-05T11:47:54.770Z,24.90
2022-08-05T11:50:26.819Z,25.30
2022-08-05T11:52:58.007Z,25.50
2022-08-05T11:55:32.110Z,25.70
2022-08-05T11:58:13.271Z,25.70
2022-08-05T12:00:46.944Z,25.80
2022-08-05T12:03:23.863Z,26.10
2022-08-05T12:06:13.154Z,26.20
2022-08-05T12:08:56.891Z,26.40
2022-08-05T12:11:40.088Z,26.40
2022-08-05T12:14:12.399Z,26.40
2022-08-05T12:16:46.514Z,26.30
2022-08-05T12:20:26.488Z,26.20
2022-08-05T12:22:13.285Z,26.30
2022-08-05T12:24:53.861Z,26.40
2022-08-05T12:27:25.812Z,26.60
2022-08-05T12:30:15.345Z,26.90
2022-08-05T12:33:07.206Z,26.90
2022-08-05T12:35:55.204Z,27.40
2022-08-05T12:38:23.291Z,27.90
2022-08-05T12:41:00.081Z,28.20
2022-08-05T12:43:32.032Z,28.50
2022-08-05T12:46:02.799Z,28.50
2022-08-05T12:48:38.972Z,28.50
2022-08-05T12:52:09.971Z,28.70
2022-08-05T12:54:04.832Z,29.10
2022-08-05T12:56:51.067Z,29.20
2022-08-05T13:00:08.247Z,29.20
2022-08-05T13:02:35.603Z,29.10
2022-08-05T13:05:05.928Z,29.20
2022-08-05T13:10:25.484Z,28.90
2022-08-05T13:12:59.302Z,28.80
2022-08-05T13:15:41.129Z,28.80
2022-08-05T13:18:11.507Z,28.80
2022-08-05T13:20:50.043Z,28.60
2022-08-05T13:23:22.514Z,28.50
2022-08-05T13:25:59.539Z,28.40
2022-08-05T13:28:32.754Z,28.30
2022-08-05T13:31:14.462Z,28.50
2022-08-05T13:34:22.157Z,28.40
2022-08-05T13:36:36.626Z,28.40
2022-08-05T13:40:12.793Z,28.40
2022-08-05T13:42:14.059Z,28.40
2022-08-05T13:44:46.261Z,28.50
2022-08-05T13:47:35.060Z,28.70
2022-08-05T13:50:11.301Z,29.00
2022-08-05T13:52:45.173Z,29.10
2022-08-05T13:55:42.004Z,29.00
2022-08-05T13:58:11.072Z,28.70
2022-08-05T14:00:40.428Z,28.20
2022-08-05T14:03:12.638Z,28.20
2022-08-05T14:06:04.860Z,28.10
2022-08-05T14:08:34.358Z,27.90
2022-08-05T14:11:19.931Z,27.60
2022-08-05T14:13:55.063Z,27.60
2022-08-05T14:16:26.159Z,27.80
2022-08-05T14:18:54.402Z,28.10
2022-08-05T14:22:10.446Z,28.30
2022-08-05T14:24:19.569Z,28.30
2022-08-05T14:27:08.489Z,28.10
2022-08-05T14:29:39.331Z,28.10
2022-08-05T14:32:15.948Z,28.10
2022-08-05T14:34:56.960Z,28.20
2022-08-05T14:37:47.363Z,28.10
2022-08-05T14:40:17.379Z,27.90
2022-08-05T14:42:54.343Z,27.80
2022-08-05T14:45:23.699Z,27.70
2022-08-05T14:48:02.588Z,27.80
2022-08-05T14:50:36.012Z,27.70
2022-08-05T14:53:18.207Z,27.50
2022-08-05T14:55:52.477Z,27.40
2022-08-05T14:58:20.999Z,27.30
2022-08-05T15:00:58.014Z,27.30
2022-08-05T15:03:39.047Z,27.20
2022-08-05T15:06:15.377Z,27.10
2022-08-05T15:08:59.673Z,26.80
2022-08-05T15:11:50.859Z,26.60
2022-08-05T15:14:35.905Z,26.40
2022-08-05T15:17:44.798Z,26.40
2022-08-05T15:20:04.321Z,26.30
2022-08-05T15:22:35.118Z,26.20
2022-08-05T15:25:14.019Z,26.00
2022-08-05T15:27:52.395Z,25.80
2022-08-05T15:30:23.516Z,25.80
2022-08-05T15:32:53.824Z,25.70
2022-08-05T15:35:25.307Z,25.70
2022-08-05T15:38:33.318Z,25.60
2022-08-05T15:41:03.838Z,25.50
2022-08-05T15:43:46.017Z,25.40
2022-08-05T15:46:15.338Z,25.40
2022-08-05T15:48:53.123Z,25.30
2022-08-05T15:52:04.044Z,25.20
2022-08-05T15:54:20.267Z,25.10
2022-08-05T15:57:02.544Z,25.00
2022-08-05T15:59:31.481Z,25.00
2022-08-05T16:02:09.196Z,24.70
2022-08-05T16:04:38.739Z,24.60
2022-08-05T16:07:06.500Z,24.60
2022-08-05T16:09:41.750Z,24.60
2022-08-05T16:12:13.861Z,24.80
2022-08-05T16:14:47.039Z,24.90
2022-08-05T16:17:17.655Z,24.70
2022-08-05T16:20:05.471Z,24.50
2022-08-05T16:22:41.100Z,24.40
2022-08-05T16:25:22.432Z,24.20
2022-08-05T16:28:10.315Z,24.10
2022-08-05T16:30:41.571Z,24.10
2022-08-05T16:33:10.160Z,24.00
2022-08-05T16:35:41.991Z,24.10
2022-08-05T16:38:24.327Z,24.00
2022-08-05T16:41:00.843Z,24.10
2022-08-05T16:43:33.428Z,24.00
2022-08-05T16:46:23.555Z,23.90
2022-08-05T16:48:55.651Z,23.70
2022-08-05T16:51:30.939Z,23.60
2022-08-05T16:54:16.002Z,23.60
2022-08-05T16:56:56.043Z,23.50
2022-08-05T16:59:24.279Z,23.40
2022-08-05T17:01:58.374Z,23.30
2022-08-05T17:04:31.990Z,23.50
2022-08-05T17:07:01.113Z,23.50
2022-08-05T17:09:38.879Z,23.60
2022-08-05T17:12:51.739Z,23.60
2022-08-05T17:15:19.340Z,23.50
2022-08-05T17:17:55.154Z,23.00
2022-08-05T17:20:31.495Z,22.60
2022-08-05T17:23:00.466Z,22.50
2022-08-05T17:25:39.367Z,22.30
2022-08-05T17:28:15.339Z,22.20
2022-08-05T17:30:52.149Z,21.90
2022-08-05T17:33:20.632Z,21.70
2022-08-05T17:36:07.464Z,21.60
2022-08-05T17:38:37.788Z,21.40
2022-08-05T17:42:18.277Z,21.10
2022-08-05T17:44:04.123Z,21.00
2022-08-05T17:46:34.148Z,21.00
2022-08-05T17:49:01.099Z,21.10
2022-08-05T17:51:40.425Z,21.00
2022-08-05T17:54:09.836Z,20.80
2022-08-05T17:56:49.515Z,20.90
2022-08-05T17:59:27.820Z,21.00
2022-08-05T18:01:58.731Z,21.00
2022-08-05T18:04:29.977Z,20.70
2022-08-05T18:07:00.486Z,20.80
2022-08-05T18:09:59.516Z,20.80
2022-08-05T18:12:24.253Z,20.80
2022-08-05T18:14:54.846Z,20.70
2022-08-05T18:17:58.856Z,20.70
2022-08-05T18:22:55.012Z,20.50
2022-08-05T18:25:33.148Z,20.50
2022-08-05T18:28:05.093Z,20.50
2022-08-05T18:30:42.919Z,20.40
2022-08-05T18:33:13.694Z,20.10
2022-08-05T18:36:00.043Z,20.00
2022-08-05T18:38:39.376Z,19.90
2022-08-05T18:41:54.958Z,19.80
2022-08-05T18:44:12.715Z,19.90
2022-08-05T18:46:44.300Z,20.10
2022-08-05T18:49:15.361Z,20.10
2022-08-05T18:52:04.795Z,20.20
2022-08-05T18:54:32.654Z,20.20
2022-08-05T18:57:04.676Z,20.10
2022-08-05T18:59:42.841Z,20.10
2022-08-05T19:02:38.244Z,20.00
2022-08-05T19:06:11.728Z,19.80
2022-08-05T19:07:57.593Z,19.70
2022-08-05T19:10:28.858Z,19.60
2022-08-05T19:12:57.572Z,19.60
2022-08-05T19:15:59.042Z,19.60
2022-08-05T19:18:22.025Z,19.60
2022-08-05T19:20:52.824Z,19.70
2022-08-05T19:24:06.595Z,19.90
2022-08-05T19:26:13.871Z,19.90
2022-08-05T19:28:43.097Z,19.80
2022-08-05T19:31:12.934Z,19.70
2022-08-05T19:33:48.229Z,19.40
2022-08-05T19:36:27.030Z,19.30
2022-08-05T19:39:01.507Z,19.20
2022-08-05T19:42:05.956Z,19.10
2022-08-05T19:44:45.218Z,19.30
2022-08-05T19:47:17.805Z,19.20
2022-08-05T19:49:49.568Z,19.00
2022-08-05T19:52:40.321Z,18.90
2022-08-05T19:56:14.307Z,18.90
2022-08-05T19:58:07.104Z,18.80
2022-08-05T20:00:48.080Z,18.70
2022-08-05T20:03:17.380Z,18.80
2022-08-05T20:05:51.198Z,18.70
2022-08-05T20:08:32.566Z,18.70
2022-08-05T20:11:01.279Z,18.90
2022-08-05T20:13:54.910Z,19.00
2022-08-05T20:16:25.575Z,19.10
2022-08-05T20:18:57.638Z,19.00
2022-08-05T20:21:31.472Z,19.00
2022-08-05T20:24:01.792Z,19.00
2022-08-05T20:26:35.060Z,18.90
2022-08-05T20:29:03.774Z,18.70
2022-08-05T20:31:43.049Z,18.60
2022-08-05T20:34:26.253Z,18.50
2022-08-05T20:36:56.072Z,18.40
2022-08-05T20:39:23.153Z,18.40
2022-08-05T20:41:52.160Z,18.30
2022-08-05T20:44:29.352Z,18.40
2022-08-05T20:47:06.766Z,18.30
2022-08-05T20:49:39.521Z,18.20
2022-08-05T20:52:09.008Z,18.20
2022-08-05T20:54:59.680Z,18.10
2022-08-05T20:57:43.009Z,18.10
2022-08-05T21:00:41.056Z,18.10
2022-08-05T21:03:11.213Z,18.10
2022-08-05T21:05:54.505Z,17.90
2022-08-05T21:08:41.871Z,18.10
2022-08-05T21:12:07.229Z,18.30
2022-08-05T21:14:16.736Z,18.30
2022-08-05T21:16:56.128Z,18.10
2022-08-05T21:19:27.219Z,18.00
2022-08-05T21:21:59.018Z,18.00
2022-08-05T21:24:27.154Z,18.00
2022-08-05T21:26:58.720Z,17.90
2022-08-05T21:29:40.755Z,17.90
2022-08-05T21:32:15.970Z,17.90
2022-08-05T21:35:17.554Z,17.70
2022-08-05T21:37:55.220Z,17.70
2022-08-05T21:40:26.571Z,17.60
2022-08-05T21:42:59.107Z,17.60
2022-08-05T21:45:56.510Z,17.50
2022-08-05T21:48:36.555Z,17.50
2022-08-05T21:51:25.050Z,17.40
2022-08-05T21:54:09.489Z,17.50
2022-08-05T21:56:44.515Z,17.50
2022-08-05T21:59:33.655Z,17.60
2022-08-05T22:02:13.049Z,17.60
2022-08-05T22:04:50.859Z,17.50
2022-08-05T22:07:20.020Z,17.50
2022-08-05T22:10:17.480Z,17.50
2022-08-05T22:13:09.322Z,17.50
2022-08-05T22:16:01.585Z,17.40
2022-08-05T22:18:40.186Z,17.30
2022-08-05T22:21:19.547Z,17.40
2022-08-05T22:24:02.815Z,17.30
2022-08-05T22:26:38.871Z,17.30
2022-08-05T22:29:17.563Z,17.30
2022-08-05T22:31:55.166Z,17.30
2022-08-05T22:34:28.690Z,17.30
2022-08-05T22:37:03.995Z,17.30
2022-08-05T22:39:35.075Z,17.30
2022-08-05T22:42:12.485Z,17.20
2022-08-05T22:44:48.228Z,17.10
2022-08-05T22:47:28.915Z,17.00
2022-08-05T22:50:20.046Z,17.00
2022-08-05T22:52:52.724Z,17.00
2022-08-05T22:55:37.069Z,17.00
2022-08-05T22:58:29.993Z,16.90
2022-08-05T23:01:09.574Z,16.80
2022-08-05T23:03:57.965Z,16.80
2022-08-05T23:06:27.918Z,16.90
2022-08-05T23:08:57.305Z,16.90
2022-08-05T23:11:50.265Z,16.70
2022-08-05T23:14:32.129Z,16.70
2022-08-05T23:17:01.063Z,16.70
2022-08-05T23:19:31.642Z,16.60
2022-08-05T23:22:08.593Z,16.70
2022-08-05T23:24:42.176Z,16.80
2022-08-05T23:27:28.777Z,16.60
2022-08-05T23:30:08.218Z,16.40
2022-08-05T23:32:37.715Z,16.40
2022-08-05T23:35:15.642Z,16.40
2022-08-05T23:37:43.755Z,16.30
2022-08-05T23:40:14.037Z,16.30
2022-08-05T23:42:47.260Z,16.20
2022-08-05T23:45:18.000Z,16.20
2022-08-05T23:47:50.087Z,16.20
2022-08-05T23:50:24.281Z,16.20
2022-08-05T23:52:52.732Z,16.10
2022-08-05T23:55:24.583Z,16.00
2022-08-05T23:58:05.353Z,15.90
